sensor_id;sensor_type;location;lat;lon;timestamp;P1;durP1;ratioP1;P2;durP2;ratioP2
52414;SDS011;38340;52.964;6.086;2022-11-20T00:00:50;28.88;;;14.90;;
52414;SDS011;38340;52.964;6.086;2022-11-20T00:03:16;26.17;;;15.07;;
52414;SDS011;38340;52.964;6.086;2022-11-20T00:05:42;28.08;;;16.05;;
52414;SDS011;38340;52.964;6.086;2022-11-20T00:08:08;22.65;;;14.25;;
52414;SDS011;38340;52.964;6.086;2022-11-20T00:10:41;28.35;;;15.15;;
52414;SDS011;38340;52.964;6.086;2022-11-20T00:13:06;26.52;;;15.38;;
52414;SDS011;38340;52.964;6.086;2022-11-20T00:15:33;26.10;;;15.00;;
52414;SDS011;38340;52.964;6.086;2022-11-20T00:17:59;23.90;;;14.40;;
52414;SDS011;38340;52.964;6.086;2022-11-20T00:20:25;23.55;;;15.25;;
52414;SDS011;38340;52.964;6.086;2022-11-20T00:22:50;23.88;;;14.90;;
52414;SDS011;38340;52.964;6.086;2022-11-20T00:25:16;23.65;;;15.52;;
52414;SDS011;38340;52.964;6.086;2022-11-20T00:27:42;27.67;;;14.63;;
52414;SDS011;38340;52.964;6.086;2022-11-20T00:30:08;25.80;;;15.65;;
52414;SDS011;38340;52.964;6.086;2022-11-20T00:32:34;23.20;;;14.18;;
52414;SDS011;38340;52.964;6.086;2022-11-20T00:34:59;23.27;;;14.48;;
52414;SDS011;38340;52.964;6.086;2022-11-20T00:37:25;24.48;;;14.00;;
52414;SDS011;38340;52.964;6.086;2022-11-20T00:39:51;22.95;;;14.05;;
52414;SDS011;38340;52.964;6.086;2022-11-20T00:42:17;22.30;;;13.70;;
52414;SDS011;38340;52.964;6.086;2022-11-20T00:44:42;24.63;;;15.48;;
52414;SDS011;38340;52.964;6.086;2022-11-20T00:47:08;23.27;;;13.82;;
52414;SDS011;38340;52.964;6.086;2022-11-20T00:49:34;20.65;;;14.23;;
52414;SDS011;38340;52.964;6.086;2022-11-20T00:52:00;24.10;;;13.63;;
52414;SDS011;38340;52.964;6.086;2022-11-20T00:54:25;22.20;;;13.75;;
52414;SDS011;38340;52.964;6.086;2022-11-20T00:56:54;25.38;;;14.43;;
52414;SDS011;38340;52.964;6.086;2022-11-20T00:59:20;21.20;;;13.93;;
52414;SDS011;38340;52.964;6.086;2022-11-20T01:01:45;26.23;;;15.05;;
52414;SDS011;38340;52.964;6.086;2022-11-20T01:04:11;27.00;;;15.63;;
52414;SDS011;38340;52.964;6.086;2022-11-20T01:06:37;21.30;;;13.90;;
52414;SDS011;38340;52.964;6.086;2022-11-20T01:09:13;20.52;;;13.98;;
52414;SDS011;38340;52.964;6.086;2022-11-20T01:11:41;20.38;;;13.25;;
52414;SDS011;38340;52.964;6.086;2022-11-20T01:14:10;26.67;;;16.38;;
52414;SDS011;38340;52.964;6.086;2022-11-20T01:16:38;24.17;;;15.25;;
52414;SDS011;38340;52.964;6.086;2022-11-20T01:19:06;24.65;;;14.55;;
52414;SDS011;38340;52.964;6.086;2022-11-20T01:21:35;24.30;;;14.93;;
52414;SDS011;38340;52.964;6.086;2022-11-20T01:24:03;22.00;;;13.68;;
52414;SDS011;38340;52.964;6.086;2022-11-20T01:26:31;21.98;;;14.18;;
52414;SDS011;38340;52.964;6.086;2022-11-20T01:28:58;25.65;;;14.18;;
52414;SDS011;38340;52.964;6.086;2022-11-20T01:31:32;25.38;;;14.95;;
52414;SDS011;38340;52.964;6.086;2022-11-20T01:34:00;22.55;;;13.95;;
52414;SDS011;38340;52.964;6.086;2022-11-20T01:36:31;22.00;;;13.95;;
52414;SDS011;38340;52.964;6.086;2022-11-20T01:38:59;22.17;;;14.40;;
52414;SDS011;38340;52.964;6.086;2022-11-20T01:41:27;19.63;;;13.43;;
52414;SDS011;38340;52.964;6.086;2022-11-20T01:44:12;22.27;;;14.18;;
52414;SDS011;38340;52.964;6.086;2022-11-20T01:46:40;22.85;;;13.57;;
52414;SDS011;38340;52.964;6.086;2022-11-20T01:49:16;20.95;;;13.38;;
52414;SDS011;38340;52.964;6.086;2022-11-20T01:51:48;23.20;;;14.20;;
52414;SDS011;38340;52.964;6.086;2022-11-20T01:54:22;22.13;;;14.52;;
52414;SDS011;38340;52.964;6.086;2022-11-20T01:56:55;23.27;;;14.23;;
52414;SDS011;38340;52.964;6.086;2022-11-20T01:59:23;20.70;;;13.60;;
52414;SDS011;38340;52.964;6.086;2022-11-20T02:01:50;21.85;;;13.40;;
52414;SDS011;38340;52.964;6.086;2022-11-20T02:04:17;22.88;;;13.68;;
52414;SDS011;38340;52.964;6.086;2022-11-20T02:06:57;19.92;;;13.73;;
52414;SDS011;38340;52.964;6.086;2022-11-20T02:09:25;24.75;;;13.73;;
52414;SDS011;38340;52.964;6.086;2022-11-20T02:11:52;21.73;;;13.80;;
52414;SDS011;38340;52.964;6.086;2022-11-20T02:14:18;22.98;;;13.35;;
52414;SDS011;38340;52.964;6.086;2022-11-20T02:16:46;20.80;;;13.75;;
52414;SDS011;38340;52.964;6.086;2022-11-20T02:19:24;21.65;;;13.43;;
52414;SDS011;38340;52.964;6.086;2022-11-20T02:24:27;29.10;;;15.52;;
52414;SDS011;38340;52.964;6.086;2022-11-20T02:26:54;27.42;;;15.43;;
52414;SDS011;38340;52.964;6.086;2022-11-20T02:32:19;20.83;;;13.38;;
52414;SDS011;38340;52.964;6.086;2022-11-20T02:34:44;21.85;;;13.77;;
52414;SDS011;38340;52.964;6.086;2022-11-20T02:37:10;22.23;;;13.50;;
52414;SDS011;38340;52.964;6.086;2022-11-20T02:39:36;19.70;;;13.60;;
52414;SDS011;38340;52.964;6.086;2022-11-20T02:42:02;24.02;;;13.70;;
52414;SDS011;38340;52.964;6.086;2022-11-20T02:44:28;24.90;;;14.93;;
52414;SDS011;38340;52.964;6.086;2022-11-20T02:46:56;22.10;;;13.73;;
52414;SDS011;38340;52.964;6.086;2022-11-20T02:49:22;21.42;;;14.05;;
52414;SDS011;38340;52.964;6.086;2022-11-20T02:51:48;22.20;;;13.20;;
52414;SDS011;38340;52.964;6.086;2022-11-20T02:54:13;23.73;;;14.25;;
52414;SDS011;38340;52.964;6.086;2022-11-20T02:56:39;22.50;;;14.05;;
52414;SDS011;38340;52.964;6.086;2022-11-20T02:59:05;23.33;;;14.55;;
52414;SDS011;38340;52.964;6.086;2022-11-20T03:01:31;28.52;;;15.57;;
52414;SDS011;38340;52.964;6.086;2022-11-20T03:03:57;26.23;;;15.38;;
52414;SDS011;38340;52.964;6.086;2022-11-20T03:06:22;20.17;;;13.27;;
52414;SDS011;38340;52.964;6.086;2022-11-20T03:08:48;22.88;;;14.85;;
52414;SDS011;38340;52.964;6.086;2022-11-20T03:11:14;23.02;;;13.27;;
52414;SDS011;38340;52.964;6.086;2022-11-20T03:13:39;23.48;;;13.85;;
52414;SDS011;38340;52.964;6.086;2022-11-20T03:16:12;21.13;;;14.80;;
52414;SDS011;38340;52.964;6.086;2022-11-20T03:18:40;19.73;;;12.75;;
52414;SDS011;38340;52.964;6.086;2022-11-20T03:21:07;21.73;;;13.65;;
52414;SDS011;38340;52.964;6.086;2022-11-20T03:23:33;22.02;;;13.85;;
52414;SDS011;38340;52.964;6.086;2022-11-20T03:26:09;24.23;;;13.38;;
52414;SDS011;38340;52.964;6.086;2022-11-20T03:28:37;23.20;;;14.70;;
52414;SDS011;38340;52.964;6.086;2022-11-20T03:31:10;23.75;;;13.65;;
52414;SDS011;38340;52.964;6.086;2022-11-20T03:33:38;20.65;;;13.07;;
52414;SDS011;38340;52.964;6.086;2022-11-20T03:36:06;20.25;;;12.95;;
52414;SDS011;38340;52.964;6.086;2022-11-20T03:38:33;23.30;;;14.25;;
52414;SDS011;38340;52.964;6.086;2022-11-20T03:41:00;19.33;;;12.52;;
52414;SDS011;38340;52.964;6.086;2022-11-20T03:43:27;24.25;;;14.02;;
52414;SDS011;38340;52.964;6.086;2022-11-20T03:45:53;21.13;;;13.73;;
52414;SDS011;38340;52.964;6.086;2022-11-20T03:48:19;19.48;;;12.73;;
52414;SDS011;38340;52.964;6.086;2022-11-20T03:50:44;20.30;;;13.15;;
52414;SDS011;38340;52.964;6.086;2022-11-20T03:53:12;20.90;;;13.25;;
52414;SDS011;38340;52.964;6.086;2022-11-20T03:55:39;19.98;;;13.13;;
52414;SDS011;38340;52.964;6.086;2022-11-20T03:58:04;19.65;;;13.38;;
52414;SDS011;38340;52.964;6.086;2022-11-20T04:00:30;18.70;;;12.13;;
52414;SDS011;38340;52.964;6.086;2022-11-20T04:02:59;24.27;;;14.23;;
52414;SDS011;38340;52.964;6.086;2022-11-20T04:05:28;20.60;;;13.30;;
52414;SDS011;38340;52.964;6.086;2022-11-20T04:07:54;18.30;;;11.65;;
52414;SDS011;38340;52.964;6.086;2022-11-20T04:10:19;20.58;;;12.23;;
52414;SDS011;38340;52.964;6.086;2022-11-20T04:12:45;18.92;;;12.73;;
52414;SDS011;38340;52.964;6.086;2022-11-20T04:15:10;18.33;;;13.52;;
52414;SDS011;38340;52.964;6.086;2022-11-20T04:17:36;20.35;;;13.38;;
52414;SDS011;38340;52.964;6.086;2022-11-20T04:20:02;21.92;;;13.00;;
52414;SDS011;38340;52.964;6.086;2022-11-20T04:22:28;19.05;;;12.70;;
52414;SDS011;38340;52.964;6.086;2022-11-20T04:24:54;22.50;;;13.88;;
52414;SDS011;38340;52.964;6.086;2022-11-20T04:27:19;20.30;;;12.90;;
52414;SDS011;38340;52.964;6.086;2022-11-20T04:29:46;20.05;;;13.40;;
52414;SDS011;38340;52.964;6.086;2022-11-20T04:32:12;20.48;;;13.00;;
52414;SDS011;38340;52.964;6.086;2022-11-20T04:34:37;19.17;;;13.20;;
52414;SDS011;38340;52.964;6.086;2022-11-20T04:37:03;18.67;;;12.07;;
52414;SDS011;38340;52.964;6.086;2022-11-20T04:39:29;19.15;;;13.38;;
52414;SDS011;38340;52.964;6.086;2022-11-20T04:41:54;17.77;;;12.40;;
52414;SDS011;38340;52.964;6.086;2022-11-20T04:44:38;20.10;;;12.45;;
52414;SDS011;38340;52.964;6.086;2022-11-20T04:47:04;20.90;;;13.15;;
52414;SDS011;38340;52.964;6.086;2022-11-20T04:49:31;20.20;;;12.80;;
52414;SDS011;38340;52.964;6.086;2022-11-20T04:51:57;20.30;;;12.13;;
52414;SDS011;38340;52.964;6.086;2022-11-20T04:54:23;18.40;;;12.13;;
52414;SDS011;38340;52.964;6.086;2022-11-20T04:56:49;17.60;;;12.30;;
52414;SDS011;38340;52.964;6.086;2022-11-20T04:59:15;18.23;;;12.43;;
52414;SDS011;38340;52.964;6.086;2022-11-20T05:01:41;18.25;;;12.75;;
52414;SDS011;38340;52.964;6.086;2022-11-20T05:04:07;20.38;;;13.55;;
52414;SDS011;38340;52.964;6.086;2022-11-20T05:06:32;96.95;;;26.85;;
52414;SDS011;38340;52.964;6.086;2022-11-20T05:08:58;19.10;;;12.38;;
52414;SDS011;38340;52.964;6.086;2022-11-20T05:11:24;19.35;;;12.90;;
52414;SDS011;38340;52.964;6.086;2022-11-20T05:13:51;19.38;;;12.60;;
52414;SDS011;38340;52.964;6.086;2022-11-20T05:16:21;23.05;;;13.27;;
52414;SDS011;38340;52.964;6.086;2022-11-20T05:18:48;33.20;;;14.23;;
52414;SDS011;38340;52.964;6.086;2022-11-20T05:21:14;18.17;;;12.32;;
52414;SDS011;38340;52.964;6.086;2022-11-20T05:23:41;18.48;;;12.88;;
52414;SDS011;38340;52.964;6.086;2022-11-20T05:26:11;18.42;;;12.98;;
52414;SDS011;38340;52.964;6.086;2022-11-20T05:28:39;21.42;;;13.05;;
52414;SDS011;38340;52.964;6.086;2022-11-20T05:31:14;21.58;;;13.45;;
52414;SDS011;38340;52.964;6.086;2022-11-20T05:33:43;16.27;;;11.52;;
52414;SDS011;38340;52.964;6.086;2022-11-20T05:36:10;18.23;;;12.20;;
52414;SDS011;38340;52.964;6.086;2022-11-20T05:38:37;21.52;;;13.50;;
52414;SDS011;38340;52.964;6.086;2022-11-20T05:41:04;19.52;;;12.25;;
52414;SDS011;38340;52.964;6.086;2022-11-20T05:43:33;17.17;;;11.45;;
52414;SDS011;38340;52.964;6.086;2022-11-20T05:46:00;19.80;;;12.32;;
52414;SDS011;38340;52.964;6.086;2022-11-20T05:48:26;21.33;;;11.85;;
52414;SDS011;38340;52.964;6.086;2022-11-20T05:50:52;20.08;;;12.13;;
52414;SDS011;38340;52.964;6.086;2022-11-20T05:53:17;94.57;;;17.20;;
52414;SDS011;38340;52.964;6.086;2022-11-20T05:55:43;82.60;;;18.40;;
52414;SDS011;38340;52.964;6.086;2022-11-20T05:58:09;22.35;;;12.80;;
52414;SDS011;38340;52.964;6.086;2022-11-20T06:00:34;19.48;;;12.45;;
52414;SDS011;38340;52.964;6.086;2022-11-20T06:03:00;20.00;;;12.45;;
52414;SDS011;38340;52.964;6.086;2022-11-20T06:05:26;18.05;;;13.05;;
52414;SDS011;38340;52.964;6.086;2022-11-20T06:07:52;18.67;;;12.88;;
52414;SDS011;38340;52.964;6.086;2022-11-20T06:10:17;20.27;;;12.80;;
52414;SDS011;38340;52.964;6.086;2022-11-20T06:12:43;17.95;;;12.25;;
52414;SDS011;38340;52.964;6.086;2022-11-20T06:15:09;20.35;;;13.20;;
52414;SDS011;38340;52.964;6.086;2022-11-20T06:17:35;22.15;;;13.32;;
52414;SDS011;38340;52.964;6.086;2022-11-20T06:20:00;17.92;;;12.35;;
52414;SDS011;38340;52.964;6.086;2022-11-20T06:22:26;18.52;;;11.63;;
52414;SDS011;38340;52.964;6.086;2022-11-20T06:24:52;21.45;;;13.50;;
52414;SDS011;38340;52.964;6.086;2022-11-20T06:27:17;23.88;;;12.70;;
52414;SDS011;38340;52.964;6.086;2022-11-20T06:29:43;18.48;;;11.60;;
52414;SDS011;38340;52.964;6.086;2022-11-20T06:32:09;32.28;;;12.60;;
52414;SDS011;38340;52.964;6.086;2022-11-20T06:34:34;20.08;;;12.93;;
52414;SDS011;38340;52.964;6.086;2022-11-20T06:37:00;19.30;;;12.30;;
52414;SDS011;38340;52.964;6.086;2022-11-20T06:39:26;19.63;;;12.10;;
52414;SDS011;38340;52.964;6.086;2022-11-20T06:41:51;18.98;;;12.30;;
52414;SDS011;38340;52.964;6.086;2022-11-20T06:44:17;20.55;;;13.05;;
52414;SDS011;38340;52.964;6.086;2022-11-20T06:46:43;19.38;;;12.88;;
52414;SDS011;38340;52.964;6.086;2022-11-20T06:49:08;17.02;;;11.32;;
52414;SDS011;38340;52.964;6.086;2022-11-20T06:51:34;17.88;;;12.30;;
52414;SDS011;38340;52.964;6.086;2022-11-20T06:53:59;18.00;;;12.00;;
52414;SDS011;38340;52.964;6.086;2022-11-20T06:56:26;18.40;;;11.85;;
52414;SDS011;38340;52.964;6.086;2022-11-20T06:58:51;19.63;;;12.65;;
52414;SDS011;38340;52.964;6.086;2022-11-20T07:01:17;18.17;;;12.18;;
52414;SDS011;38340;52.964;6.086;2022-11-20T07:03:43;17.83;;;12.13;;
52414;SDS011;38340;52.964;6.086;2022-11-20T07:06:09;21.25;;;12.32;;
52414;SDS011;38340;52.964;6.086;2022-11-20T07:08:35;20.95;;;12.60;;
52414;SDS011;38340;52.964;6.086;2022-11-20T07:11:02;19.77;;;12.45;;
52414;SDS011;38340;52.964;6.086;2022-11-20T07:13:30;18.98;;;12.40;;
52414;SDS011;38340;52.964;6.086;2022-11-20T07:16:00;19.50;;;11.88;;
52414;SDS011;38340;52.964;6.086;2022-11-20T07:18:30;17.37;;;12.07;;
52414;SDS011;38340;52.964;6.086;2022-11-20T07:20:59;19.40;;;12.20;;
52414;SDS011;38340;52.964;6.086;2022-11-20T07:23:25;18.98;;;12.98;;
52414;SDS011;38340;52.964;6.086;2022-11-20T07:25:51;22.75;;;12.30;;
52414;SDS011;38340;52.964;6.086;2022-11-20T07:28:17;19.50;;;12.45;;
52414;SDS011;38340;52.964;6.086;2022-11-20T07:30:42;20.80;;;13.20;;
52414;SDS011;38340;52.964;6.086;2022-11-20T07:33:14;20.83;;;12.45;;
52414;SDS011;38340;52.964;6.086;2022-11-20T07:35:39;17.70;;;12.45;;
52414;SDS011;38340;52.964;6.086;2022-11-20T07:38:05;18.30;;;12.05;;
52414;SDS011;38340;52.964;6.086;2022-11-20T07:40:30;18.40;;;12.75;;
52414;SDS011;38340;52.964;6.086;2022-11-20T07:42:56;19.38;;;13.20;;
52414;SDS011;38340;52.964;6.086;2022-11-20T07:45:23;18.80;;;12.18;;
52414;SDS011;38340;52.964;6.086;2022-11-20T07:47:49;18.65;;;12.02;;
52414;SDS011;38340;52.964;6.086;2022-11-20T07:50:15;18.15;;;12.30;;
52414;SDS011;38340;52.964;6.086;2022-11-20T07:52:41;17.17;;;11.30;;
52414;SDS011;38340;52.964;6.086;2022-11-20T07:55:07;18.38;;;12.00;;
52414;SDS011;38340;52.964;6.086;2022-11-20T07:57:34;19.60;;;12.02;;
52414;SDS011;38340;52.964;6.086;2022-11-20T08:00:00;18.17;;;12.32;;
52414;SDS011;38340;52.964;6.086;2022-11-20T08:02:25;20.02;;;12.63;;
52414;SDS011;38340;52.964;6.086;2022-11-20T08:04:51;20.08;;;12.73;;
52414;SDS011;38340;52.964;6.086;2022-11-20T08:07:17;19.02;;;12.32;;
52414;SDS011;38340;52.964;6.086;2022-11-20T08:09:42;18.85;;;12.35;;
52414;SDS011;38340;52.964;6.086;2022-11-20T08:12:09;21.30;;;12.65;;
52414;SDS011;38340;52.964;6.086;2022-11-20T08:15:02;30.77;;;19.08;;
52414;SDS011;38340;52.964;6.086;2022-11-20T08:17:28;18.83;;;12.57;;
52414;SDS011;38340;52.964;6.086;2022-11-20T08:19:54;19.60;;;12.00;;
52414;SDS011;38340;52.964;6.086;2022-11-20T08:22:19;20.45;;;12.25;;
52414;SDS011;38340;52.964;6.086;2022-11-20T08:24:45;18.05;;;11.63;;
52414;SDS011;38340;52.964;6.086;2022-11-20T08:27:11;17.30;;;11.68;;
52414;SDS011;38340;52.964;6.086;2022-11-20T08:29:37;19.10;;;11.73;;
52414;SDS011;38340;52.964;6.086;2022-11-20T08:32:02;17.92;;;11.75;;
52414;SDS011;38340;52.964;6.086;2022-11-20T08:34:28;16.42;;;10.88;;
52414;SDS011;38340;52.964;6.086;2022-11-20T08:36:54;19.27;;;11.32;;
52414;SDS011;38340;52.964;6.086;2022-11-20T08:39:19;18.20;;;12.20;;
52414;SDS011;38340;52.964;6.086;2022-11-20T08:41:45;19.50;;;11.95;;
52414;SDS011;38340;52.964;6.086;2022-11-20T08:44:11;19.70;;;12.05;;
52414;SDS011;38340;52.964;6.086;2022-11-20T08:46:37;19.50;;;11.32;;
52414;SDS011;38340;52.964;6.086;2022-11-20T08:49:06;16.08;;;10.60;;
52414;SDS011;38340;52.964;6.086;2022-11-20T08:51:33;19.58;;;11.30;;
52414;SDS011;38340;52.964;6.086;2022-11-20T08:53:59;23.85;;;11.63;;
52414;SDS011;38340;52.964;6.086;2022-11-20T08:56:25;20.80;;;11.95;;
52414;SDS011;38340;52.964;6.086;2022-11-20T08:58:51;19.25;;;10.98;;
52414;SDS011;38340;52.964;6.086;2022-11-20T09:01:17;15.93;;;11.25;;
52414;SDS011;38340;52.964;6.086;2022-11-20T09:03:45;17.88;;;11.73;;
52414;SDS011;38340;52.964;6.086;2022-11-20T09:06:11;16.88;;;10.90;;
52414;SDS011;38340;52.964;6.086;2022-11-20T09:08:36;17.70;;;10.70;;
52414;SDS011;38340;52.964;6.086;2022-11-20T09:11:02;18.45;;;11.20;;
52414;SDS011;38340;52.964;6.086;2022-11-20T09:13:29;18.38;;;11.35;;
52414;SDS011;38340;52.964;6.086;2022-11-20T09:15:56;20.52;;;11.55;;
52414;SDS011;38340;52.964;6.086;2022-11-20T09:18:32;19.33;;;10.90;;
52414;SDS011;38340;52.964;6.086;2022-11-20T09:21:02;17.55;;;12.05;;
52414;SDS011;38340;52.964;6.086;2022-11-20T09:23:34;16.48;;;11.73;;
52414;SDS011;38340;52.964;6.086;2022-11-20T09:26:08;17.13;;;10.13;;
52414;SDS011;38340;52.964;6.086;2022-11-20T09:28:36;17.17;;;11.15;;
52414;SDS011;38340;52.964;6.086;2022-11-20T09:31:06;17.20;;;10.75;;
52414;SDS011;38340;52.964;6.086;2022-11-20T09:33:32;19.05;;;11.35;;
52414;SDS011;38340;52.964;6.086;2022-11-20T09:35:58;17.65;;;11.30;;
52414;SDS011;38340;52.964;6.086;2022-11-20T09:38:24;19.05;;;11.82;;
52414;SDS011;38340;52.964;6.086;2022-11-20T09:40:57;19.77;;;10.75;;
52414;SDS011;38340;52.964;6.086;2022-11-20T09:52:22;47.95;;;16.40;;
52414;SDS011;38340;52.964;6.086;2022-11-20T09:54:51;19.63;;;11.00;;
52414;SDS011;38340;52.964;6.086;2022-11-20T09:57:20;23.92;;;11.65;;
52414;SDS011;38340;52.964;6.086;2022-11-20T09:59:50;15.80;;;10.20;;
52414;SDS011;38340;52.964;6.086;2022-11-20T10:02:28;16.58;;;10.68;;
52414;SDS011;38340;52.964;6.086;2022-11-20T10:05:10;17.83;;;9.95;;
52414;SDS011;38340;52.964;6.086;2022-11-20T10:15:47;13.15;;;9.13;;
52414;SDS011;38340;52.964;6.086;2022-11-20T10:21:02;14.57;;;9.68;;
52414;SDS011;38340;52.964;6.086;2022-11-20T10:23:45;12.60;;;8.50;;
52414;SDS011;38340;52.964;6.086;2022-11-20T10:26:26;12.98;;;8.88;;
52414;SDS011;38340;52.964;6.086;2022-11-20T10:29:13;13.60;;;8.45;;
52414;SDS011;38340;52.964;6.086;2022-11-20T10:31:45;11.60;;;8.15;;
52414;SDS011;38340;52.964;6.086;2022-11-20T10:34:23;10.98;;;8.07;;
52414;SDS011;38340;52.964;6.086;2022-11-20T10:37:09;12.20;;;8.13;;
52414;SDS011;38340;52.964;6.086;2022-11-20T10:42:22;10.38;;;7.70;;
52414;SDS011;38340;52.964;6.086;2022-11-20T10:50:32;11.82;;;7.47;;
52414;SDS011;38340;52.964;6.086;2022-11-20T10:55:53;12.65;;;7.80;;
52414;SDS011;38340;52.964;6.086;2022-11-20T11:01:19;15.85;;;8.63;;
52414;SDS011;38340;52.964;6.086;2022-11-20T11:03:48;11.82;;;8.05;;
52414;SDS011;38340;52.964;6.086;2022-11-20T11:06:37;12.30;;;8.32;;
52414;SDS011;38340;52.964;6.086;2022-11-20T11:09:17;15.52;;;9.25;;
52414;SDS011;38340;52.964;6.086;2022-11-20T11:11:49;12.35;;;8.68;;
52414;SDS011;38340;52.964;6.086;2022-11-20T11:14:15;17.52;;;9.63;;
52414;SDS011;38340;52.964;6.086;2022-11-20T11:16:55;13.48;;;7.93;;
52414;SDS011;38340;52.964;6.086;2022-11-20T11:19:22;13.23;;;7.68;;
52414;SDS011;38340;52.964;6.086;2022-11-20T11:21:52;15.43;;;9.23;;
52414;SDS011;38340;52.964;6.086;2022-11-20T11:24:24;18.90;;;11.70;;
52414;SDS011;38340;52.964;6.086;2022-11-20T11:26:57;11.73;;;9.10;;
52414;SDS011;38340;52.964;6.086;2022-11-20T11:29:31;12.27;;;8.60;;
52414;SDS011;38340;52.964;6.086;2022-11-20T11:32:08;14.52;;;9.25;;
52414;SDS011;38340;52.964;6.086;2022-11-20T11:34:43;12.95;;;8.77;;
52414;SDS011;38340;52.964;6.086;2022-11-20T11:37:16;12.98;;;8.88;;
52414;SDS011;38340;52.964;6.086;2022-11-20T11:39:44;12.10;;;7.72;;
52414;SDS011;38340;52.964;6.086;2022-11-20T11:42:13;15.07;;;8.15;;
52414;SDS011;38340;52.964;6.086;2022-11-20T11:44:47;10.82;;;7.78;;
52414;SDS011;38340;52.964;6.086;2022-11-20T11:47:43;9.80;;;7.05;;
52414;SDS011;38340;52.964;6.086;2022-11-20T11:50:26;9.60;;;7.45;;
52414;SDS011;38340;52.964;6.086;2022-11-20T11:52:58;9.20;;;6.88;;
52414;SDS011;38340;52.964;6.086;2022-11-20T11:58:14;10.80;;;7.25;;
52414;SDS011;38340;52.964;6.086;2022-11-20T12:00:58;9.57;;;7.40;;
52414;SDS011;38340;52.964;6.086;2022-11-20T12:03:36;11.13;;;7.28;;
52414;SDS011;38340;52.964;6.086;2022-11-20T12:06:10;9.95;;;6.80;;
52414;SDS011;38340;52.964;6.086;2022-11-20T12:08:56;12.85;;;7.57;;
52414;SDS011;38340;52.964;6.086;2022-11-20T12:16:55;10.45;;;7.35;;
52414;SDS011;38340;52.964;6.086;2022-11-20T12:19:22;11.48;;;7.32;;
52414;SDS011;38340;52.964;6.086;2022-11-20T12:21:58;9.77;;;6.75;;
52414;SDS011;38340;52.964;6.086;2022-11-20T12:30:30;10.00;;;7.30;;
52414;SDS011;38340;52.964;6.086;2022-11-20T12:35:49;10.02;;;6.97;;
52414;SDS011;38340;52.964;6.086;2022-11-20T12:41:19;10.10;;;7.05;;
52414;SDS011;38340;52.964;6.086;2022-11-20T12:55:31;11.70;;;7.03;;
52414;SDS011;38340;52.964;6.086;2022-11-20T13:06:50;13.00;;;7.53;;
52414;SDS011;38340;52.964;6.086;2022-11-20T13:09:17;10.90;;;7.10;;
52414;SDS011;38340;52.964;6.086;2022-11-20T13:14:20;11.13;;;7.75;;
52414;SDS011;38340;52.964;6.086;2022-11-20T13:19:50;11.52;;;7.28;;
52414;SDS011;38340;52.964;6.086;2022-11-20T13:22:25;12.98;;;7.45;;
52414;SDS011;38340;52.964;6.086;2022-11-20T13:24:52;10.13;;;7.40;;
52414;SDS011;38340;52.964;6.086;2022-11-20T13:27:19;12.32;;;8.02;;
52414;SDS011;38340;52.964;6.086;2022-11-20T13:30:00;11.55;;;8.02;;
52414;SDS011;38340;52.964;6.086;2022-11-20T13:32:42;11.60;;;7.65;;
52414;SDS011;38340;52.964;6.086;2022-11-20T13:38:14;27.15;;;9.30;;
52414;SDS011;38340;52.964;6.086;2022-11-20T13:40:59;11.90;;;7.60;;
52414;SDS011;38340;52.964;6.086;2022-11-20T13:43:46;12.32;;;8.05;;
52414;SDS011;38340;52.964;6.086;2022-11-20T13:46:13;11.25;;;7.70;;
52414;SDS011;38340;52.964;6.086;2022-11-20T13:48:43;12.88;;;7.95;;
52414;SDS011;38340;52.964;6.086;2022-11-20T13:54:04;12.52;;;7.82;;
52414;SDS011;38340;52.964;6.086;2022-11-20T13:59:49;12.70;;;8.73;;
52414;SDS011;38340;52.964;6.086;2022-11-20T14:02:19;21.50;;;9.45;;
52414;SDS011;38340;52.964;6.086;2022-11-20T14:04:47;12.48;;;8.02;;
52414;SDS011;38340;52.964;6.086;2022-11-20T14:07:15;11.90;;;8.02;;
52414;SDS011;38340;52.964;6.086;2022-11-20T14:10:04;11.45;;;7.57;;
52414;SDS011;38340;52.964;6.086;2022-11-20T14:12:30;13.30;;;8.35;;
52414;SDS011;38340;52.964;6.086;2022-11-20T14:14:58;13.45;;;8.32;;
52414;SDS011;38340;52.964;6.086;2022-11-20T14:19:55;12.45;;;8.20;;
52414;SDS011;38340;52.964;6.086;2022-11-20T14:22:26;11.88;;;7.95;;
52414;SDS011;38340;52.964;6.086;2022-11-20T14:27:41;14.20;;;9.60;;
52414;SDS011;38340;52.964;6.086;2022-11-20T14:30:22;12.43;;;8.52;;
52414;SDS011;38340;52.964;6.086;2022-11-20T14:32:49;12.70;;;8.88;;
52414;SDS011;38340;52.964;6.086;2022-11-20T14:35:20;11.52;;;8.43;;
52414;SDS011;38340;52.964;6.086;2022-11-20T14:37:51;14.60;;;9.60;;
52414;SDS011;38340;52.964;6.086;2022-11-20T14:40:28;26.08;;;12.13;;
52414;SDS011;38340;52.964;6.086;2022-11-20T14:43:00;13.23;;;9.32;;
52414;SDS011;38340;52.964;6.086;2022-11-20T14:45:27;14.02;;;8.75;;
52414;SDS011;38340;52.964;6.086;2022-11-20T14:47:54;18.27;;;10.43;;
52414;SDS011;38340;52.964;6.086;2022-11-20T14:50:23;37.55;;;12.23;;
52414;SDS011;38340;52.964;6.086;2022-11-20T14:52:54;17.13;;;9.38;;
52414;SDS011;38340;52.964;6.086;2022-11-20T14:55:25;102.35;;;23.02;;
52414;SDS011;38340;52.964;6.086;2022-11-20T14:58:00;38.38;;;12.52;;
52414;SDS011;38340;52.964;6.086;2022-11-20T15:00:27;33.60;;;13.00;;
52414;SDS011;38340;52.964;6.086;2022-11-20T15:02:54;15.00;;;10.48;;
52414;SDS011;38340;52.964;6.086;2022-11-20T15:05:21;14.70;;;10.45;;
52414;SDS011;38340;52.964;6.086;2022-11-20T15:08:05;15.82;;;11.10;;
52414;SDS011;38340;52.964;6.086;2022-11-20T15:10:33;14.80;;;10.15;;
52414;SDS011;38340;52.964;6.086;2022-11-20T15:13:03;19.55;;;10.55;;
52414;SDS011;38340;52.964;6.086;2022-11-20T15:15:50;16.85;;;10.70;;
52414;SDS011;38340;52.964;6.086;2022-11-20T15:18:23;14.75;;;9.35;;
52414;SDS011;38340;52.964;6.086;2022-11-20T15:20:54;13.30;;;9.13;;
52414;SDS011;38340;52.964;6.086;2022-11-20T15:23:21;13.30;;;9.30;;
52414;SDS011;38340;52.964;6.086;2022-11-20T15:25:48;14.55;;;9.75;;
52414;SDS011;38340;52.964;6.086;2022-11-20T15:30:54;13.68;;;9.73;;
52414;SDS011;38340;52.964;6.086;2022-11-20T15:33:21;13.43;;;9.55;;
52414;SDS011;38340;52.964;6.086;2022-11-20T15:35:47;14.63;;;9.65;;
52414;SDS011;38340;52.964;6.086;2022-11-20T15:38:13;14.10;;;9.55;;
52414;SDS011;38340;52.964;6.086;2022-11-20T15:40:38;16.42;;;9.18;;
52414;SDS011;38340;52.964;6.086;2022-11-20T15:43:04;13.15;;;9.50;;
52414;SDS011;38340;52.964;6.086;2022-11-20T15:45:42;13.50;;;9.20;;
52414;SDS011;38340;52.964;6.086;2022-11-20T15:48:14;16.02;;;10.40;;
52414;SDS011;38340;52.964;6.086;2022-11-20T15:50:54;13.77;;;9.35;;
52414;SDS011;38340;52.964;6.086;2022-11-20T15:53:28;14.25;;;9.98;;
52414;SDS011;38340;52.964;6.086;2022-11-20T15:55:54;15.38;;;9.88;;
52414;SDS011;38340;52.964;6.086;2022-11-20T15:58:20;16.52;;;11.18;;
52414;SDS011;38340;52.964;6.086;2022-11-20T16:00:47;14.68;;;10.65;;
52414;SDS011;38340;52.964;6.086;2022-11-20T16:03:14;14.52;;;9.40;;
52414;SDS011;38340;52.964;6.086;2022-11-20T16:05:41;13.95;;;10.52;;
52414;SDS011;38340;52.964;6.086;2022-11-20T16:08:06;16.65;;;11.02;;
52414;SDS011;38340;52.964;6.086;2022-11-20T16:10:32;15.07;;;10.43;;
52414;SDS011;38340;52.964;6.086;2022-11-20T16:12:58;13.98;;;9.55;;
52414;SDS011;38340;52.964;6.086;2022-11-20T16:15:43;15.15;;;9.98;;
52414;SDS011;38340;52.964;6.086;2022-11-20T16:18:13;15.50;;;11.00;;